Time;durP1;ratioP1;P1;durP2;ratioP2;P2;SDS_P1;SDS_P2;PMS_P1;PMS_P2;Temp;Humidity;BMP_temperature;BMP_pressure;BME280_temperature;BME280_humidity;BME280_pressure;Samples;Min_cycle;Max_cycle;Signal;HPM_P1;HPM_P2
2022/01/25 00:26:47;;;;;;;;;;;;;;;3.07;80.86;103541.13;5083243;28;19920;-74
2022/01/25 00:29:26;;;;;;;;;;;;;;;3.08;80.95;103543.75;5082658;28;20011;-73
2022/01/25 00:31:51;;;;;;;;;;;;;;;3.18;81.10;103541.41;5087261;28;19924;-74
2022/01/25 00:34:17;;;;;;;;;;;;;;;3.17;81.25;103537.97;5084519;28;19924;-74
2022/01/25 00:36:42;;;;;;;;;;;;;;;3.18;80.73;103531.03;5071611;28;19917;-74
2022/01/25 00:39:07;;;;;;;;;;;;;;;3.12;81.40;103531.72;5082381;28;19928;-75
2022/01/25 00:41:32;;;;;;;;;;;;;;;3.21;82.33;103533.72;5086487;28;19916;-75
2022/01/25 00:44:00;;;;;;;;;;;;;;;3.12;81.81;103529.13;5076323;28;19920;-74
2022/01/25 00:46:25;;;;;;;;;;;;;;;3.11;81.74;103535.16;5085793;28;19931;-74
2022/01/25 00:48:54;;;;;;;;;;;;;;;3.16;81.37;103530.09;5086366;28;19999;-72
2022/01/25 00:56:30;;;;;;;;;;;;;;;3.05;81.50;103529.81;5087548;28;19920;-78
2022/01/25 00:58:56;;;;;;;;;;;;;;;3.05;81.52;103533.28;5092019;28;19931;-73
2022/01/25 01:01:22;;;;;;;;;;;;;;;3.03;81.46;103531.47;5084903;28;19916;-73
2022/01/25 01:03:48;;;;;;;;;;;;;;;3.09;81.40;103526.44;5088102;28;19920;-73
2022/01/25 01:06:15;;;;;;;;;;;;;;;3.11;81.68;103524.78;5084909;28;19988;-75
2022/01/25 01:08:40;;;;;;;;;;;;;;;3.13;81.62;103517.91;5090261;28;20025;-74
2022/01/25 01:11:09;;;;;;;;;;;;;;;3.12;82.05;103525.69;5085325;28;19916;-74
2022/01/25 01:48:29;;;;;;;;;;;;;;;2.83;82.38;103508.44;5090913;28;19927;-80
2022/01/25 01:50:57;;;;;;;;;;;;;;;2.84;82.74;103515.38;5091649;28;19923;-79
2022/01/25 01:53:23;;;;;;;;;;;;;;;2.97;82.30;103510.53;5090582;28;19927;-78
2022/01/25 01:55:48;;;;;;;;;;;;;;;2.93;82.42;103514.75;5092173;28;19916;-78
2022/01/25 01:58:14;;;;;;;;;;;;;;;3.03;82.04;103513.31;5091349;28;20300;-79
2022/01/25 02:00:41;;;;;;;;;;;;;;;3.03;82.05;103508.97;5091364;28;20288;-78
2022/01/25 02:03:07;;;;;;;;;;;;;;;3.05;82.17;103507.31;5091287;28;20339;-78
2022/01/25 02:05:33;;;;;;;;;;;;;;;2.94;82.28;103504.41;5091738;28;19916;-78
2022/01/25 02:07:58;;;;;;;;;;;;;;;3.02;82.05;103503.75;5091813;28;20245;-79
2022/01/25 02:10:24;;;;;;;;;;;;;;;2.87;82.53;103505.06;5089643;28;19920;-73
2022/01/25 02:12:51;;;;;;;;;;;;;;;2.82;82.87;103508.38;5091673;28;19916;-76
2022/01/25 02:15:17;;;;;;;;;;;;;;;2.86;82.78;103511.13;5089631;28;20104;-78
2022/01/25 02:23:21;;;;;;;;;;;;;;;2.83;82.35;103503.25;5088927;28;19946;-73
2022/01/25 02:25:47;;;;;;;;;;;;;;;2.84;82.33;103501.50;5087737;28;19967;-73
2022/01/25 02:28:12;;;;;;;;;;;;;;;2.70;83.26;103489.00;5088284;28;19920;-73
2022/01/25 02:30:38;;;;;;;;;;;;;;;2.71;83.27;103495.09;5088262;28;19950;-73
2022/01/25 02:33:03;;;;;;;;;;;;;;;2.81;82.74;103499.72;5088341;28;19919;-77
2022/01/25 02:35:28;;;;;;;;;;;;;;;2.83;82.94;103503.25;5086561;28;19916;-74
2022/01/25 02:37:54;;;;;;;;;;;;;;;2.85;82.57;103486.00;5074845;28;19920;-74
2022/01/25 02:40:19;;;;;;;;;;;;;;;2.84;82.75;103492.03;5087594;28;19931;-73
2022/01/25 02:42:44;;;;;;;;;;;;;;;2.87;82.37;103486.03;5090393;28;19920;-76
2022/01/25 02:45:15;;;;;;;;;;;;;;;2.78;82.41;103494.41;5090405;28;19916;-83
2022/01/25 02:50:21;;;;;;;;;;;;;;;2.74;83.07;103490.00;5087105;28;19927;-74
2022/01/25 02:52:46;;;;;;;;;;;;;;;2.66;83.33;103494.06;5087566;28;19916;-73
2022/01/25 02:55:11;;;;;;;;;;;;;;;2.69;83.41;103495.06;5088856;28;20389;-79
2022/01/25 02:57:37;;;;;;;;;;;;;;;2.72;83.42;103491.66;5088429;28;19920;-77
2022/01/25 03:00:04;;;;;;;;;;;;;;;2.86;82.71;103485.16;5088741;28;20335;-72
2022/01/25 03:02:30;;;;;;;;;;;;;;;2.78;82.88;103490.13;5088092;28;19943;-73
2022/01/25 03:04:55;;;;;;;;;;;;;;;2.78;82.72;103494.41;5086963;28;20041;-72
2022/01/25 03:07:20;;;;;;;;;;;;;;;2.71;83.20;103488.16;5086058;28;19928;-73
2022/01/25 03:09:46;;;;;;;;;;;;;;;2.74;83.61;103488.25;5082515;28;19924;-73
2022/01/25 03:12:17;;;;;;;;;;;;;;;2.84;83.85;103486.81;5086984;28;20011;-74
2022/01/25 03:14:59;;;;;;;;;;;;;;;2.89;83.29;103492.16;5085511;28;19947;-72
2022/01/25 03:17:29;;;;;;;;;;;;;;;2.96;82.91;103481.09;5071317;28;19955;-73
2022/01/25 03:20:04;;;;;;;;;;;;;;;2.78;82.32;103486.63;5084388;28;20772;-74
2022/01/25 03:25:10;;;;;;;;;;;;;;;2.85;82.98;103483.41;5087924;28;20077;-78
2022/01/25 03:27:35;;;;;;;;;;;;;;;2.78;83.22;103484.94;5086052;28;20007;-73
2022/01/25 03:30:01;;;;;;;;;;;;;;;2.80;82.40;103471.97;5088880;28;19965;-78
2022/01/25 03:32:26;;;;;;;;;;;;;;;2.83;82.67;103473.78;5088350;28;19979;-79
2022/01/25 03:34:51;;;;;;;;;;;;;;;2.84;82.54;103467.75;5085454;28;20093;-72
2022/01/25 03:37:17;;;;;;;;;;;;;;;2.88;82.47;103465.28;5085744;28;19927;-81
2022/01/25 03:39:42;;;;;;;;;;;;;;;2.80;82.71;103469.38;5089267;28;19935;-81
2022/01/25 03:42:09;;;;;;;;;;;;;;;2.77;83.62;103482.28;5085665;28;19916;-79
2022/01/25 03:44:35;;;;;;;;;;;;;;;2.74;82.78;103480.47;5088457;28;19924;-79
2022/01/25 03:47:06;;;;;;;;;;;;;;;2.76;82.92;103480.50;5083622;28;19924;-75
2022/01/25 03:52:13;;;;;;;;;;;;;;;2.69;82.68;103476.00;5081429;28;19960;-72
2022/01/25 03:54:38;;;;;;;;;;;;;;;2.73;83.15;103485.63;5087676;28;19924;-71
2022/01/25 03:57:04;;;;;;;;;;;;;;;2.81;82.19;103485.88;5085217;28;19932;-73
2022/01/25 03:59:29;;;;;;;;;;;;;;;2.72;82.56;103479.53;5085641;28;19928;-71
2022/01/25 04:01:55;;;;;;;;;;;;;;;2.73;82.89;103483.03;5087974;28;20002;-79
2022/01/25 04:04:24;;;;;;;;;;;;;;;2.78;83.31;103486.63;5087454;28;19927;-79
2022/01/25 04:06:52;;;;;;;;;;;;;;;2.83;83.25;103484.16;5083800;28;19955;-78
2022/01/25 04:09:17;;;;;;;;;;;;;;;2.80;82.40;103471.13;5089520;28;20419;-79
2022/01/25 04:11:43;;;;;;;;;;;;;;;2.85;82.38;103472.09;5087087;28;19923;-73
2022/01/25 04:14:08;;;;;;;;;;;;;;;2.90;82.38;103474.00;5092526;28;19969;-73
2022/01/25 04:16:38;;;;;;;;;;;;;;;3.00;81.74;103469.94;5087364;28;19931;-73
2022/01/25 04:19:09;;;;;;;;;;;;;;;2.99;82.14;103469.88;5083534;28;19983;-73
2022/01/25 04:26:41;;;;;;;;;;;;;;;2.81;82.70;103465.97;5085573;28;19920;-73
2022/01/25 04:29:06;;;;;;;;;;;;;;;2.74;82.31;103458.84;5086026;28;19916;-73
2022/01/25 04:31:32;;;;;;;;;;;;;;;2.78;82.45;103460.66;5088999;28;19966;-73
2022/01/25 04:50:03;;;;;;;;;;;;;;;2.70;82.63;103454.38;5051867;28;19967;-79
2022/01/25 04:52:34;;;;;;;;;;;;;;;2.73;82.55;103446.69;5055456;28;19917;-73
2022/01/25 05:00:22;;;;;;;;;;;;;;;2.52;83.47;103453.03;5068433;28;19924;-72
2022/01/25 05:05:34;;;;;;;;;;;;;;;2.40;83.35;103450.06;5068905;28;19916;-72
2022/01/25 05:10:49;;;;;;;;;;;;;;;2.44;83.89;103451.91;5071198;28;19917;-81
2022/01/25 05:13:35;;;;;;;;;;;;;;;2.43;83.58;103452.72;5072210;28;19916;-80
2022/01/25 05:24:01;;;;;;;;;;;;;;;2.62;82.64;103439.50;5071048;28;19947;-80
2022/01/25 05:26:27;;;;;;;;;;;;;;;2.34;82.86;103442.09;5069959;28;19920;-73
2022/01/25 05:28:52;;;;;;;;;;;;;;;2.31;83.51;103451.56;5067980;28;19951;-72
2022/01/25 05:31:18;;;;;;;;;;;;;;;2.42;83.59;103456.19;5069487;28;20398;-72
2022/01/25 05:33:43;;;;;;;;;;;;;;;2.46;83.62;103455.44;5069088;28;19948;-74
2022/01/25 05:36:08;;;;;;;;;;;;;;;2.49;82.89;103460.72;5070942;28;19923;-80
2022/01/25 05:38:34;;;;;;;;;;;;;;;2.48;83.41;103462.41;5072500;28;19917;-82
2022/01/25 05:41:01;;;;;;;;;;;;;;;2.59;82.28;103457.56;5071563;28;19978;-81
2022/01/25 05:48:49;;;;;;;;;;;;;;;2.48;81.62;103461.56;5071116;28;20015;-72
2022/01/25 05:51:15;;;;;;;;;;;;;;;2.50;81.56;103459.00;5068419;28;19920;-72
2022/01/25 05:53:42;;;;;;;;;;;;;;;2.46;81.38;103461.53;5067604;28;19979;-73
2022/01/25 05:56:08;;;;;;;;;;;;;;;2.43;81.98;103461.41;5067279;28;19931;-74
2022/01/25 05:58:33;;;;;;;;;;;;;;;2.37;81.82;103462.94;5068409;28;20028;-80
2022/01/25 06:00:58;;;;;;;;;;;;;;;2.49;81.77;103463.31;5071270;28;19917;-80
2022/01/25 06:03:26;;;;;;;;;;;;;;;2.36;82.46;103459.50;5072104;28;19916;-83
2022/01/25 06:05:52;;;;;;;;;;;;;;;2.39;82.64;103464.75;5071815;28;19916;-78
2022/01/25 06:08:17;;;;;;;;;;;;;;;2.35;82.52;103467.19;5072325;28;20024;-80
2022/01/25 06:10:42;;;;;;;;;;;;;;;2.35;83.08;103468.09;5071533;28;19916;-81
2022/01/25 06:13:08;;;;;;;;;;;;;;;2.36;83.38;103466.38;5068880;28;19947;-79
2022/01/25 06:15:33;;;;;;;;;;;;;;;2.37;83.39;103469.00;5073339;28;19917;-81
2022/01/25 06:17:58;;;;;;;;;;;;;;;2.42;82.99;103469.16;5071167;28;20313;-82
2022/01/25 06:20:24;;;;;;;;;;;;;;;2.47;82.90;103470.16;5070726;28;20294;-82
2022/01/25 06:22:49;;;;;;;;;;;;;;;2.59;83.01;103472.25;5071827;28;19916;-82
2022/01/25 06:25:15;;;;;;;;;;;;;;;2.65;82.17;103469.84;5068352;28;20356;-82
2022/01/25 06:27:42;;;;;;;;;;;;;;;2.52;82.76;103467.72;5074603;28;19935;-78
2022/01/25 06:30:08;;;;;;;;;;;;;;;2.46;83.52;103473.59;5073121;28;19986;-78
2022/01/25 06:32:34;;;;;;;;;;;;;;;2.43;83.76;103476.09;5073436;28;19920;-78
2022/01/25 06:34:59;;;;;;;;;;;;;;;2.46;83.87;103482.28;5071591;28;19916;-78
2022/01/25 06:37:25;;;;;;;;;;;;;;;2.45;83.18;103467.53;5071542;28;19917;-80
2022/01/25 06:39:50;;;;;;;;;;;;;;;2.46;83.35;103468.41;5070675;28;19924;-80
2022/01/25 06:42:15;;;;;;;;;;;;;;;2.47;83.31;103470.16;5070379;28;19966;-81
2022/01/25 06:44:41;;;;;;;;;;;;;;;2.53;83.69;103474.66;5071070;28;19983;-81
2022/01/25 06:47:07;;;;;;;;;;;;;;;2.53;83.46;103478.16;5068201;28;19921;-71
2022/01/25 06:49:32;;;;;;;;;;;;;;;2.59;82.80;103469.66;5069894;28;19916;-72
2022/01/25 06:51:58;;;;;;;;;;;;;;;2.60;82.84;103477.50;5066484;28;20473;-72
2022/01/25 06:54:23;;;;;;;;;;;;;;;2.66;82.68;103478.47;5067508;28;19955;-73
2022/01/25 06:56:48;;;;;;;;;;;;;;;2.67;82.71;103472.47;5068737;28;20547;-77
2022/01/25 06:59:15;;;;;;;;;;;;;;;2.66;82.73;103471.59;5069645;28;19960;-72
2022/01/25 07:01:40;;;;;;;;;;;;;;;2.61;82.83;103484.44;5068311;28;19924;-72
2022/01/25 07:04:06;;;;;;;;;;;;;;;2.67;83.06;103482.84;5067121;28;20293;-72
2022/01/25 07:06:31;;;;;;;;;;;;;;;2.65;82.38;103477.63;5068183;28;19967;-72
2022/01/25 07:08:57;;;;;;;;;;;;;;;2.65;82.30;103480.22;5068109;28;19924;-79
2022/01/25 07:11:23;;;;;;;;;;;;;;;2.62;83.07;103486.19;5071725;28;19971;-73
2022/01/25 07:13:48;;;;;;;;;;;;;;;2.69;82.91;103488.97;5066354;28;19920;-72
2022/01/25 07:16:14;;;;;;;;;;;;;;;2.66;82.73;103486.28;5070646;28;19982;-80
2022/01/25 07:18:40;;;;;;;;;;;;;;;2.66;83.11;103486.28;5076588;28;19951;-72
2022/01/25 07:21:05;;;;;;;;;;;;;;;2.63;81.96;103482.78;5086976;28;19958;-73
2022/01/25 07:23:30;;;;;;;;;;;;;;;2.67;81.79;103481.16;5086567;28;19947;-82
2022/01/25 07:25:56;;;;;;;;;;;;;;;2.76;82.27;103476.22;5068445;28;19981;-72
2022/01/25 07:28:22;;;;;;;;;;;;;;;2.78;82.56;103477.16;5068032;28;19999;-80
2022/01/25 07:30:47;;;;;;;;;;;;;;;2.85;82.28;103473.00;5067715;28;19947;-73
2022/01/25 07:33:12;;;;;;;;;;;;;;;2.87;81.80;103468.72;5065942;28;20242;-73
2022/01/25 07:35:39;;;;;;;;;;;;;;;2.81;81.45;103472.88;5066131;28;19921;-72
2022/01/25 07:38:05;;;;;;;;;;;;;;;2.62;81.87;103465.44;5064933;28;20423;-73
2022/01/25 07:40:32;;;;;;;;;;;;;;;2.72;81.93;103460.50;5069298;28;19945;-73
2022/01/25 07:42:58;;;;;;;;;;;;;;;2.72;81.92;103466.56;5065953;28;19916;-72
2022/01/25 07:45:24;;;;;;;;;;;;;;;2.81;81.58;103457.31;5067288;28;19924;-72
2022/01/25 07:47:49;;;;;;;;;;;;;;;2.70;81.96;103463.03;5072296;28;19927;-73
2022/01/25 07:50:15;;;;;;;;;;;;;;;2.83;81.10;103460.78;5085886;28;19916;-73
2022/01/25 07:52:41;;;;;;;;;;;;;;;2.80;81.75;103464.19;5089681;28;19920;-80
2022/01/25 07:55:07;;;;;;;;;;;;;;;2.84;81.92;103460.84;5067946;28;20347;-79
2022/01/25 07:57:32;;;;;;;;;;;;;;;2.84;81.65;103463.47;5071551;28;19924;-79
2022/01/25 07:59:58;;;;;;;;;;;;;;;2.92;81.62;103467.13;5069040;28;20384;-78
2022/01/25 08:02:23;;;;;;;;;;;;;;;2.93;80.77;103462.81;5065706;28;20374;-79
2022/01/25 08:04:49;;;;;;;;;;;;;;;2.55;81.86;103466.06;5065225;28;19997;-77
2022/01/25 08:07:14;;;;;;;;;;;;;;;2.50;82.46;103475.47;5066320;28;19972;-78
2022/01/25 08:09:40;;;;;;;;;;;;;;;2.47;83.07;103490.94;5066804;28;19921;-76
2022/01/25 08:12:05;;;;;;;;;;;;;;;2.56;82.81;103478.22;5068243;28;19923;-77
2022/01/25 08:14:30;;;;;;;;;;;;;;;2.65;82.37;103474.16;5067890;28;19940;-78
2022/01/25 08:16:56;;;;;;;;;;;;;;;2.79;81.67;103462.44;5069890;28;20344;-77
2022/01/25 08:19:21;;;;;;;;;;;;;;;2.80;81.94;103469.38;5071311;28;20556;-78
2022/01/25 08:21:47;;;;;;;;;;;;;;;2.71;83.27;103463.94;5073201;28;20656;-76
2022/01/25 08:24:14;;;;;;;;;;;;;;;2.67;82.94;103473.34;5072574;28;19942;-79
2022/01/25 08:26:40;;;;;;;;;;;;;;;2.65;83.33;103479.34;5075620;28;19931;-79
2022/01/25 08:29:06;;;;;;;;;;;;;;;2.73;83.40;103478.72;5074543;28;20392;-79
2022/01/25 08:31:32;;;;;;;;;;;;;;;2.77;83.43;103466.69;5075498;28;19924;-75
2022/01/25 08:33:57;;;;;;;;;;;;;;;2.60;83.44;103469.69;5072566;28;19921;-76
2022/01/25 08:36:23;;;;;;;;;;;;;;;2.58;83.50;103470.50;5059365;28;19921;-75
2022/01/25 08:38:49;;;;;;;;;;;;;;;2.51;83.81;103469.44;5053172;28;20015;-74
2022/01/25 08:41:15;;;;;;;;;;;;;;;2.41;83.44;103475.19;5050755;28;20413;-76
2022/01/25 08:43:40;;;;;;;;;;;;;;;2.50;83.61;103477.16;5073960;28;20883;-75
2022/01/25 08:46:06;;;;;;;;;;;;;;;2.55;84.01;103473.84;5082558;28;20008;-76
2022/01/25 08:48:31;;;;;;;;;;;;;;;2.51;83.37;103466.84;5074310;28;19916;-76
2022/01/25 08:50:58;;;;;;;;;;;;;;;2.50;83.92;103475.47;5068494;28;19920;-75
2022/01/25 08:53:24;;;;;;;;;;;;;;;2.60;83.66;103477.50;5070907;28;20011;-76
2022/01/25 08:55:49;;;;;;;;;;;;;;;2.56;82.85;103475.63;5073713;28;20297;-76
2022/01/25 08:58:14;;;;;;;;;;;;;;;2.46;82.82;103478.78;5071254;28;20373;-76
2022/01/25 09:00:40;;;;;;;;;;;;;;;2.47;83.17;103472.75;5077753;28;20372;-78
2022/01/25 09:03:05;;;;;;;;;;;;;;;2.46;83.66;103478.78;5087738;28;20007;-77
2022/01/25 09:05:30;;;;;;;;;;;;;;;2.51;82.99;103477.22;5090650;28;19920;-78
2022/01/25 09:07:57;;;;;;;;;;;;;;;2.75;82.33;103471.00;5083643;28;20011;-79
2022/01/25 09:10:23;;;;;;;;;;;;;;;2.66;82.92;103483.69;5094944;28;19969;-79
2022/01/25 09:12:49;;;;;;;;;;;;;;;2.57;83.53;103487.78;5104902;27;19947;-79
2022/01/25 09:15:14;;;;;;;;;;;;;;;2.66;83.50;103492.34;5101584;28;20365;-79
2022/01/25 09:17:39;;;;;;;;;;;;;;;2.75;83.37;103494.34;5102702;27;19927;-79
2022/01/25 09:20:05;;;;;;;;;;;;;;;2.85;83.22;103493.78;5071724;28;19928;-81
2022/01/25 09:22:30;;;;;;;;;;;;;;;2.95;82.55;103487.13;5087129;28;19920;-76
2022/01/25 09:24:56;;;;;;;;;;;;;;;2.98;81.73;103489.81;5100493;27;19922;-76
2022/01/25 09:27:21;;;;;;;;;;;;;;;2.76;82.33;103499.56;5096148;28;19920;-76
2022/01/25 09:29:47;;;;;;;;;;;;;;;2.84;82.19;103494.63;5099688;28;20010;-77
2022/01/25 09:32:12;;;;;;;;;;;;;;;2.70;82.70;103501.97;5100024;28;19924;-79
2022/01/25 09:34:37;;;;;;;;;;;;;;;2.76;82.74;103501.28;5111591;28;19939;-75
2022/01/25 09:37:03;;;;;;;;;;;;;;;2.84;82.49;103497.22;5098884;27;20376;-76
2022/01/25 09:39:29;;;;;;;;;;;;;;;2.73;82.50;103504.66;5105518;27;20421;-77
2022/01/25 09:41:54;;;;;;;;;;;;;;;2.75;82.97;103497.81;5100492;28;20299;-76
2022/01/25 09:44:20;;;;;;;;;;;;;;;2.71;82.95;103506.34;5102308;28;19963;-77
2022/01/25 09:46:45;;;;;;;;;;;;;;;2.86;83.00;103510.22;5099624;27;19920;-75
2022/01/25 09:49:11;;;;;;;;;;;;;;;2.67;83.01;103514.00;5100406;27;20304;-76
2022/01/25 09:51:39;;;;;;;;;;;;;;;2.56;83.41;103521.47;5093100;27;19924;-75
2022/01/25 09:54:04;;;;;;;;;;;;;;;2.45;83.79;103527.22;5089317;28;19915;-75
2022/01/25 09:56:30;;;;;;;;;;;;;;;2.54;83.51;103520.53;5096370;28;19927;-77
2022/01/25 09:58:55;;;;;;;;;;;;;;;2.59;83.07;103517.25;5093426;28;19916;-77
2022/01/25 10:01:37;;;;;;;;;;;;;;;2.61;83.37;103522.47;5087184;28;20507;-75
2022/01/25 10:04:04;;;;;;;;;;;;;;;2.62;83.09;103527.72;5088238;28;20384;-75
2022/01/25 10:06:31;;;;;;;;;;;;;;;2.76;82.01;103525.53;5089920;28;19923;-76
2022/01/25 10:08:57;;;;;;;;;;;;;;;2.82;82.17;103530.03;5085304;28;20023;-76
2022/01/25 10:11:25;;;;;;;;;;;;;;;2.73;82.28;103537.56;5082958;28;20468;-76
2022/01/25 10:13:54;;;;;;;;;;;;;;;2.73;82.65;103540.16;5087274;28;19995;-76
2022/01/25 10:16:35;;;;;;;;;;;;;;;2.58;83.03;103536.25;5083005;28;19927;-76
2022/01/25 10:19:16;;;;;;;;;;;;;;;2.48;83.87;103544.59;5070039;28;19927;-76
2022/01/25 10:21:42;;;;;;;;;;;;;;;2.55;83.47;103548.25;5070169;28;19924;-75
2022/01/25 10:24:24;;;;;;;;;;;;;;;2.59;83.08;103548.41;5080551;28;19926;-76
2022/01/25 10:27:06;;;;;;;;;;;;;;;2.53;83.56;103545.63;5094267;28;20016;-76
2022/01/25 10:29:34;;;;;;;;;;;;;;;2.76;82.37;103553.19;5069540;28;20012;-76
2022/01/25 10:32:02;;;;;;;;;;;;;;;2.71;82.89;103549.59;5069340;28;19916;-77
2022/01/25 10:34:28;;;;;;;;;;;;;;;2.84;82.31;103541.34;5092773;27;19923;-77
2022/01/25 10:36:54;;;;;;;;;;;;;;;2.77;82.58;103536.78;5094376;27;20296;-75
2022/01/25 10:39:21;;;;;;;;;;;;;;;2.88;82.34;103540.59;5090756;28;19923;-75
2022/01/25 10:41:47;;;;;;;;;;;;;;;2.67;82.25;103539.94;5092575;28;20053;-77
2022/01/25 10:44:12;;;;;;;;;;;;;;;2.67;83.11;103545.13;5101878;28;19999;-77
2022/01/25 10:46:38;;;;;;;;;;;;;;;2.78;82.96;103551.53;5110475;28;19968;-77
2022/01/25 10:49:05;;;;;;;;;;;;;;;2.85;82.28;103537.03;5111094;28;19943;-79
2022/01/25 10:51:33;;;;;;;;;;;;;;;2.88;81.98;103543.19;5109336;28;19923;-78
2022/01/25 10:54:00;;;;;;;;;;;;;;;2.91;81.48;103543.28;5098361;28;20392;-75
2022/01/25 10:56:25;;;;;;;;;;;;;;;2.71;82.72;103547.88;5092658;28;20366;-75
2022/01/25 10:58:51;;;;;;;;;;;;;;;2.59;83.54;103557.91;5102874;27;19927;-77
2022/01/25 11:01:32;;;;;;;;;;;;;;;3.02;81.82;103547.91;5099324;27;19931;-77
2022/01/25 11:06:55;;;;;;;;;;;;;;;2.85;82.43;103540.50;5070496;28;20014;-79
2022/01/25 11:09:22;;;;;;;;;;;;;;;2.83;82.38;103542.19;5095862;27;19935;-77
2022/01/25 11:11:52;;;;;;;;;;;;;;;2.94;82.09;103542.47;5092547;28;19924;-77
2022/01/25 11:16:59;;;;;;;;;;;;;;;3.23;81.35;103522.53;5067716;28;19920;-76
2022/01/25 11:19:25;;;;;;;;;;;;;;;3.12;81.76;103526.53;5068008;28;20003;-76
2022/01/25 11:21:51;;;;;;;;;;;;;;;3.30;80.80;103513.19;5068664;28;19974;-77
2022/01/25 11:24:17;;;;;;;;;;;;;;;3.47;80.24;103515.38;5059258;28;19921;-76
2022/01/25 11:26:44;;;;;;;;;;;;;;;3.38;79.90;103511.66;5080364;28;20003;-79
2022/01/25 11:29:09;;;;;;;;;;;;;;;3.22;81.32;103512.09;5087732;28;19916;-81
2022/01/25 11:31:36;;;;;;;;;;;;;;;3.17;81.41;103500.69;5087900;28;19916;-80
2022/01/25 11:34:04;;;;;;;;;;;;;;;3.37;80.50;103503.84;5089496;28;20007;-81
2022/01/25 11:36:31;;;;;;;;;;;;;;;3.40;80.86;103494.41;5073625;28;19927;-78
2022/01/25 11:38:56;;;;;;;;;;;;;;;3.41;80.94;103500.50;5069421;28;19947;-75
2022/01/25 11:41:24;;;;;;;;;;;;;;;3.42;79.89;103481.44;5077826;28;20380;-77
2022/01/25 11:44:04;;;;;;;;;;;;;;;3.15;81.39;103495.47;5076035;28;19958;-77
2022/01/25 11:46:30;;;;;;;;;;;;;;;3.21;80.42;103492.16;5075551;28;19950;-78
2022/01/25 11:48:59;;;;;;;;;;;;;;;3.01;81.82;103487.31;5089670;28;19920;-80
2022/01/25 11:51:25;;;;;;;;;;;;;;;3.19;81.48;103489.53;5089497;28;20395;-80
2022/01/25 11:53:50;;;;;;;;;;;;;;;3.37;80.74;103489.09;5073582;28;19920;-76
2022/01/25 11:56:17;;;;;;;;;;;;;;;3.37;81.24;103483.03;5066759;28;20006;-75
2022/01/25 11:58:51;;;;;;;;;;;;;;;3.53;80.32;103473.94;5076974;28;20486;-79
2022/01/25 12:01:18;;;;;;;;;;;;;;;3.40;80.76;103476.19;5049897;28;20643;-79
2022/01/25 12:03:45;;;;;;;;;;;;;;;3.35;81.19;103480.41;5070744;28;20366;-76
2022/01/25 12:06:28;;;;;;;;;;;;;;;3.56;80.02;103469.69;5084013;28;19924;-76
2022/01/25 12:11:39;;;;;;;;;;;;;;;3.41;80.65;103471.91;5087879;28;19916;-80
2022/01/25 12:14:21;;;;;;;;;;;;;;;3.54;80.37;103463.56;5087856;28;20065;-77
2022/01/25 12:16:48;;;;;;;;;;;;;;;3.47;80.40;103459.06;5088431;28;19920;-79
2022/01/25 12:19:14;;;;;;;;;;;;;;;3.38;81.48;103458.81;5088577;28;20080;-79
2022/01/25 12:21:55;;;;;;;;;;;;;;;3.45;80.96;103457.25;5091043;28;19931;-80
2022/01/25 12:24:23;;;;;;;;;;;;;;;3.50;80.46;103445.25;5087169;28;20013;-75
2022/01/25 12:29:46;;;;;;;;;;;;;;;3.37;81.40;103447.53;5086498;28;20003;-75
2022/01/25 12:32:27;;;;;;;;;;;;;;;3.33;81.59;103450.00;5087698;28;20008;-75
2022/01/25 12:35:08;;;;;;;;;;;;;;;3.45;80.90;103446.88;5080440;28;19966;-76
2022/01/25 12:37:54;;;;;;;;;;;;;;;3.44;81.16;103450.31;5075260;28;20572;-75
2022/01/25 12:40:35;;;;;;;;;;;;;;;3.45;80.92;103446.88;5072420;28;19971;-76
2022/01/25 12:43:18;;;;;;;;;;;;;;;3.45;81.10;103449.47;5085136;28;20289;-74
2022/01/25 12:45:58;;;;;;;;;;;;;;;3.39;81.04;103447.59;5087446;28;19916;-75
2022/01/25 12:48:28;;;;;;;;;;;;;;;3.36;81.58;103445.78;5087288;28;19926;-76
2022/01/25 12:50:54;;;;;;;;;;;;;;;3.29;82.25;103448.19;5087616;28;20369;-76
2022/01/25 12:53:35;;;;;;;;;;;;;;;3.34;82.63;103450.06;5087412;28;19924;-75
2022/01/25 12:56:02;;;;;;;;;;;;;;;3.30;82.35;103445.63;5087334;28;19916;-76
2022/01/25 12:58:28;;;;;;;;;;;;;;;3.44;82.12;103448.56;5087122;28;19987;-76
2022/01/25 13:00:55;;;;;;;;;;;;;;;3.48;81.79;103444.31;5087762;28;20639;-78
2022/01/25 13:03:36;;;;;;;;;;;;;;;3.70;80.26;103435.34;5087341;28;20007;-79
2022/01/25 13:06:17;;;;;;;;;;;;;;;3.51;81.29;103445.31;5090551;28;19916;-79
2022/01/25 13:08:50;;;;;;;;;;;;;;;3.54;81.08;103437.56;5091502;28;19920;-78
2022/01/25 13:11:42;;;;;;;;;;;;;;;3.42;81.84;103432.06;5092520;28;19916;-79
2022/01/25 13:16:50;;;;;;;;;;;;;;;3.64;80.76;103422.22;5098834;28;20280;-79
2022/01/25 13:19:18;;;;;;;;;;;;;;;3.46;81.16;103428.69;5074090;27;20496;-79
2022/01/25 13:22:01;;;;;;;;;;;;;;;3.47;81.74;103419.19;5052535;28;19947;-78
2022/01/25 13:24:30;;;;;;;;;;;;;;;3.51;80.88;103413.22;5067698;28;19927;-79
2022/01/25 13:26:58;;;;;;;;;;;;;;;3.38;81.69;103422.44;5079462;28;19924;-80
2022/01/25 13:32:34;;;;;;;;;;;;;;;3.53;81.46;103411.53;5069477;28;20667;-79
2022/01/25 13:38:11;;;;;;;;;;;;;;;3.39;82.06;103421.59;5071462;28;19916;-78
2022/01/25 13:46:14;;;;;;;;;;;;;;;3.54;80.83;103403.78;5089314;28;19981;-78
2022/01/25 13:48:40;;;;;;;;;;;;;;;3.39;81.73;103406.00;5094303;28;19943;-78
2022/01/25 13:51:07;;;;;;;;;;;;;;;3.55;81.58;103402.94;5091416;28;19966;-78
2022/01/25 13:53:33;;;;;;;;;;;;;;;3.71;80.36;103404.16;5090776;28;19920;-79
2022/01/25 13:55:59;;;;;;;;;;;;;;;3.44;81.37;103406.13;5093269;28;19916;-79
2022/01/25 14:01:21;;;;;;;;;;;;;;;3.61;81.41;103403.94;5099410;27;19940;-79
2022/01/25 14:04:02;;;;;;;;;;;;;;;3.54;81.63;103395.97;5093339;28;20054;-78
2022/01/25 14:06:29;;;;;;;;;;;;;;;3.52;81.96;103400.28;5090385;28;19991;-78
2022/01/25 14:09:12;;;;;;;;;;;;;;;3.47;81.90;103401.88;5097770;28;20301;-79
2022/01/25 14:25:36;;;;;;;;;;;;;;;3.63;81.13;103391.84;5080626;28;19951;-79
2022/01/25 14:28:04;;;;;;;;;;;;;;;3.66;80.74;103376.31;5091862;28;19920;-79
2022/01/25 14:30:30;;;;;;;;;;;;;;;3.49;81.16;103394.09;5091083;28;20387;-80
2022/01/25 14:33:12;;;;;;;;;;;;;;;3.40;82.08;103395.63;5092770;28;19916;-79
2022/01/25 14:35:52;;;;;;;;;;;;;;;3.38;82.61;103394.72;5085276;28;19929;-79
2022/01/25 14:38:33;;;;;;;;;;;;;;;3.57;81.15;103392.59;5089056;28;19923;-78
2022/01/25 14:41:14;;;;;;;;;;;;;;;3.36;81.73;103395.53;5090154;28;19924;-79
2022/01/25 14:43:39;;;;;;;;;;;;;;;3.40;81.56;103394.78;5107167;28;19931;-78
2022/01/25 14:46:05;;;;;;;;;;;;;;;3.42;81.83;103406.06;5093612;28;19939;-80
2022/01/25 14:48:35;;;;;;;;;;;;;;;3.38;81.80;103399.91;5092527;28;19969;-80
2022/01/25 14:51:00;;;;;;;;;;;;;;;3.26;82.52;103402.22;5090283;28;19917;-79
2022/01/25 14:53:26;;;;;;;;;;;;;;;3.21;82.74;103409.88;5090296;28;19923;-80
2022/01/25 14:55:52;;;;;;;;;;;;;;;3.27;82.37;103406.56;5090588;28;19920;-80
2022/01/25 15:00:58;;;;;;;;;;;;;;;3.21;82.59;103412.47;5090857;28;20031;-78
2022/01/25 15:03:24;;;;;;;;;;;;;;;3.20;83.67;103408.13;5089222;28;19946;-82
2022/01/25 15:05:50;;;;;;;;;;;;;;;3.23;83.62;103410.81;5089061;28;20402;-79
2022/01/25 15:08:17;;;;;;;;;;;;;;;3.37;82.98;103405.09;5087815;28;19920;-80
2022/01/25 15:10:45;;;;;;;;;;;;;;;3.48;82.00;103397.53;5081247;28;19916;-78
2022/01/25 15:13:28;;;;;;;;;;;;;;;3.27;82.54;103397.91;5087182;28;19920;-81
2022/01/25 15:18:38;;;;;;;;;;;;;;;3.09;83.70;103404.38;5075926;28;20014;-80
2022/01/25 15:21:04;;;;;;;;;;;;;;;3.19;83.20;103406.41;5087617;28;20434;-79
2022/01/25 15:23:32;;;;;;;;;;;;;;;3.23;82.93;103396.97;5091185;28;19986;-79
2022/01/25 15:25:59;;;;;;;;;;;;;;;3.20;83.97;103402.94;5100024;28;19923;-80
2022/01/25 15:28:35;;;;;;;;;;;;;;;3.25;83.60;103398.75;5089998;28;19978;-80
2022/01/25 15:31:01;;;;;;;;;;;;;;;3.27;83.77;103397.91;5074459;28;19920;-80
2022/01/25 15:33:26;;;;;;;;;;;;;;;3.15;83.58;103403.66;5091662;28;19923;-80
2022/01/25 15:35:51;;;;;;;;;;;;;;;3.10;83.86;103406.13;5086479;28;19916;-80
2022/01/25 15:38:17;;;;;;;;;;;;;;;3.02;84.61;103400.75;5078467;28;20507;-80
2022/01/25 15:40:42;;;;;;;;;;;;;;;3.00;84.45;103410.22;5088068;28;19928;-81
2022/01/25 15:43:08;;;;;;;;;;;;;;;2.97;84.74;103415.31;5086733;28;19920;-80